Time;durP1;ratioP1;P1;durP2;ratioP2;P2;SDS_P1;SDS_P2;PMS_P1;PMS_P2;Temp;Humidity;BMP_temperature;BMP_pressure;BME280_temperature;BME280_humidity;BME280_pressure;Samples;Min_cycle;Max_cycle;Signal;HPM_P1;HPM_P2
2021/11/13 00:02:19;;;;;;;14.18;9.52;;;10.40;85.60;;;;;;5097550;28;20026;-72
2021/11/13 00:04:45;;;;;;;14.02;10.25;;;10.40;85.70;;;;;;5097495;28;20031;-73
2021/11/13 00:07:10;;;;;;;15.48;9.77;;;10.40;85.90;;;;;;5097204;28;20023;-73
2021/11/13 00:09:36;;;;;;;13.80;10.25;;;10.40;85.90;;;;;;5097268;28;20016;-74
2021/11/13 00:12:03;;;;;;;13.50;10.45;;;10.40;86.10;;;;;;5097709;28;20027;-73
2021/11/13 00:14:29;;;;;;;13.88;10.35;;;10.40;86.20;;;;;;5115652;28;20077;-73
2021/11/13 00:16:56;;;;;;;13.27;9.63;;;10.40;86.20;;;;;;5097299;28;20119;-73
2021/11/13 00:19:21;;;;;;;13.40;9.82;;;10.40;86.40;;;;;;5097287;28;20383;-73
2021/11/13 00:21:47;;;;;;;14.07;9.88;;;10.40;86.40;;;;;;5097171;28;20028;-73
2021/11/13 00:24:12;;;;;;;12.43;9.75;;;10.40;86.40;;;;;;5097239;28;20023;-73
2021/11/13 00:26:39;;;;;;;11.95;9.43;;;10.40;86.40;;;;;;5096658;28;20042;-73
2021/11/13 00:29:05;;;;;;;13.00;10.30;;;10.40;86.50;;;;;;5096961;28;20145;-73
2021/11/13 00:31:32;;;;;;;14.52;10.23;;;10.50;86.60;;;;;;5096885;28;20483;-73
2021/11/13 00:33:58;;;;;;;12.98;10.18;;;10.40;86.60;;;;;;5096740;28;20047;-75
2021/11/13 00:36:24;;;;;;;14.80;10.48;;;10.50;86.80;;;;;;5115100;28;20479;-72
2021/11/13 00:38:50;;;;;;;13.75;10.45;;;10.40;86.80;;;;;;5115083;28;20045;-73
2021/11/13 00:41:16;;;;;;;14.20;10.65;;;10.50;86.90;;;;;;5096834;28;20032;-73
2021/11/13 00:43:41;;;;;;;14.20;11.00;;;10.50;87.00;;;;;;5096683;28;20502;-73
2021/11/13 00:46:07;;;;;;;15.27;11.30;;;10.50;87.00;;;;;;5096508;28;20030;-74
2021/11/13 00:48:33;;;;;;;13.57;10.20;;;10.40;87.10;;;;;;5114750;28;20024;-73
2021/11/13 00:50:58;;;;;;;15.68;10.75;;;10.40;87.20;;;;;;5114810;28;20120;-72
2021/11/13 00:53:24;;;;;;;14.18;10.50;;;10.40;87.30;;;;;;5096482;28;20382;-73
2021/11/13 00:55:49;;;;;;;16.13;10.63;;;10.40;87.40;;;;;;5096423;28;20023;-72
2021/11/13 00:58:16;;;;;;;15.38;10.82;;;10.40;88.10;;;;;;5096436;28;20027;-72
2021/11/13 01:00:42;;;;;;;17.58;11.80;;;10.40;87.60;;;;;;5096425;28;20118;-74
2021/11/13 01:03:08;;;;;;;17.77;11.77;;;10.40;87.70;;;;;;5096385;28;20083;-74
2021/11/13 01:05:34;;;;;;;17.63;10.93;;;10.40;87.90;;;;;;5096409;28;20030;-74
2021/11/13 01:08:00;;;;;;;17.48;11.07;;;10.40;88.00;;;;;;5096377;28;20055;-74
2021/11/13 01:10:26;;;;;;;17.75;12.40;;;10.40;88.00;;;;;;5096316;28;20404;-74
2021/11/13 01:12:51;;;;;;;15.00;10.98;;;10.40;88.00;;;;;;5114736;28;20093;-74
2021/11/13 01:15:19;;;;;;;17.52;11.23;;;10.40;88.00;;;;;;5114454;28;20020;-74
2021/11/13 01:17:44;;;;;;;16.50;11.98;;;10.40;88.00;;;;;;5096038;28;20138;-74
2021/11/13 01:20:12;;;;;;;16.70;11.20;;;10.40;88.10;;;;;;5096191;28;20031;-74
2021/11/13 01:22:38;;;;;;;14.45;10.82;;;10.40;88.10;;;;;;5095433;28;20391;-74
2021/11/13 01:25:04;;;;;;;14.98;10.98;;;10.40;88.20;;;;;;5096014;28;20050;-74
2021/11/13 01:27:30;;;;;;;15.20;10.95;;;10.40;88.30;;;;;;5095892;28;20020;-73
2021/11/13 01:29:56;;;;;;;16.52;11.43;;;10.40;88.30;;;;;;5095893;28;20068;-74
2021/11/13 01:32:21;;;;;;;15.75;10.98;;;10.40;88.30;;;;;;5095874;28;20019;-74
2021/11/13 01:34:47;;;;;;;16.35;11.30;;;10.40;88.30;;;;;;5095642;28;20046;-74
2021/11/13 01:37:13;;;;;;;17.05;11.23;;;10.30;88.30;;;;;;5095756;28;20396;-74
2021/11/13 01:39:38;;;;;;;15.50;10.63;;;10.40;88.40;;;;;;5095723;28;20027;-74
2021/11/13 01:42:05;;;;;;;15.80;10.88;;;10.40;88.40;;;;;;5071199;28;20044;-74
2021/11/13 01:44:31;;;;;;;13.48;10.38;;;10.40;88.50;;;;;;5054412;28;20400;-74
2021/11/13 01:46:56;;;;;;;14.00;10.25;;;10.40;88.50;;;;;;5054363;28;20079;-74
2021/11/13 01:49:23;;;;;;;14.13;10.55;;;10.40;88.50;;;;;;5071341;28;20155;-75
2021/11/13 01:51:49;;;;;;;13.20;10.25;;;10.40;88.60;;;;;;5054114;28;20466;-74
2021/11/13 01:54:16;;;;;;;13.98;10.63;;;10.40;88.60;;;;;;5054386;28;20032;-74
2021/11/13 01:56:41;;;;;;;15.35;10.40;;;10.40;88.70;;;;;;5054150;28;20496;-74
2021/11/13 01:59:08;;;;;;;14.45;9.80;;;10.40;88.70;;;;;;5054248;28;20020;-72
2021/11/13 02:01:35;;;;;;;12.95;10.23;;;10.40;88.70;;;;;;5070989;28;20528;-72
2021/11/13 02:04:01;;;;;;;12.95;9.60;;;10.40;88.80;;;;;;5070933;28;20024;-73
2021/11/13 02:06:28;;;;;;;13.80;10.02;;;10.50;88.90;;;;;;5053992;28;20028;-74
2021/11/13 02:08:53;;;;;;;14.80;10.07;;;10.50;88.90;;;;;;5070861;28;20035;-72
2021/11/13 02:11:23;;;;;;;13.55;9.70;;;10.50;88.90;;;;;;5070839;28;20037;-72
2021/11/13 02:13:50;;;;;;;13.02;9.52;;;10.50;88.90;;;;;;5087811;28;20135;-73
2021/11/13 02:16:15;;;;;;;13.70;9.07;;;10.50;88.80;;;;;;5095253;28;20026;-73
2021/11/13 02:18:42;;;;;;;12.77;9.18;;;10.50;88.80;;;;;;5095239;28;20057;-73
2021/11/13 02:21:09;;;;;;;12.38;9.60;;;10.50;88.90;;;;;;5095159;28;20464;-73
2021/11/13 02:23:36;;;;;;;12.60;9.20;;;10.50;88.90;;;;;;5095211;28;20032;-72
2021/11/13 02:26:02;;;;;;;12.30;9.02;;;10.50;88.90;;;;;;5113267;28;20024;-73
2021/11/13 02:28:28;;;;;;;11.73;9.32;;;10.50;89.00;;;;;;5095187;28;20406;-73
2021/11/13 02:30:57;;;;;;;12.52;9.18;;;10.50;89.00;;;;;;5095077;28;20018;-73
2021/11/13 02:33:23;;;;;;;11.52;8.55;;;10.60;89.10;;;;;;5114228;28;20020;-73
2021/11/13 02:35:53;;;;;;;11.30;8.65;;;10.60;89.10;;;;;;5117587;28;20460;-73
2021/11/13 02:38:26;;;;;;;11.30;8.70;;;10.60;89.20;;;;;;5117558;28;20387;-73
2021/11/13 02:40:58;;;;;;;11.73;8.18;;;10.60;89.20;;;;;;5099215;28;20024;-73
2021/11/13 02:43:26;;;;;;;9.90;8.50;;;10.60;89.20;;;;;;5099187;28;20368;-73
2021/11/13 02:45:56;;;;;;;10.93;8.95;;;10.60;89.20;;;;;;5117182;28;20592;-73
2021/11/13 02:48:23;;;;;;;12.70;8.68;;;10.60;89.20;;;;;;5098924;28;20058;-73
2021/11/13 02:50:49;;;;;;;12.38;9.30;;;10.60;89.20;;;;;;5117227;28;20021;-72
2021/11/13 02:53:24;;;;;;;12.45;8.43;;;10.60;89.30;;;;;;5098943;28;20035;-73
2021/11/13 02:55:51;;;;;;;10.77;8.07;;;10.60;89.30;;;;;;5098824;28;20028;-72
2021/11/13 02:58:19;;;;;;;11.73;8.98;;;10.60;89.30;;;;;;5098694;28;20059;-73
2021/11/13 03:00:48;;;;;;;11.90;8.93;;;10.60;89.30;;;;;;5098655;28;20049;-72
2021/11/13 03:03:16;;;;;;;10.35;8.45;;;10.70;89.40;;;;;;5098572;28;20023;-72
2021/11/13 03:05:51;;;;;;;12.15;9.38;;;10.70;89.40;;;;;;5098502;28;20522;-73
2021/11/13 03:08:26;;;;;;;11.95;9.07;;;10.70;89.50;;;;;;5098533;28;20118;-72
2021/11/13 03:10:54;;;;;;;11.45;9.02;;;10.70;89.50;;;;;;5098422;28;20016;-72
2021/11/13 03:13:19;;;;;;;13.68;9.48;;;10.70;89.50;;;;;;5116730;28;20024;-72
2021/11/13 03:15:47;;;;;;;11.43;9.50;;;10.70;89.50;;;;;;5116731;28;20034;-73
2021/11/13 03:18:12;;;;;;;11.73;9.13;;;10.70;89.50;;;;;;5098423;28;20102;-73
2021/11/13 03:20:38;;;;;;;11.32;9.23;;;10.70;89.50;;;;;;5116704;28;20128;-73
2021/11/13 03:23:03;;;;;;;12.63;9.20;;;10.80;89.60;;;;;;5098383;28;20495;-72
2021/11/13 03:25:38;;;;;;;10.25;8.77;;;10.80;89.60;;;;;;5098196;28;20024;-72
2021/11/13 03:28:08;;;;;;;11.10;9.10;;;10.80;89.60;;;;;;5116469;28;20095;-72
2021/11/13 03:30:34;;;;;;;11.73;9.38;;;10.80;89.60;;;;;;5098180;28;20016;-72
2021/11/13 03:32:59;;;;;;;13.70;9.82;;;10.80;89.60;;;;;;5098129;28;20104;-72
2021/11/13 03:35:29;;;;;;;13.85;9.73;;;10.80;89.60;;;;;;5098030;28;20445;-72
2021/11/13 03:38:16;;;;;;;13.23;9.63;;;10.80;89.60;;;;;;5098132;28;20367;-72
2021/11/13 03:40:44;;;;;;;14.27;10.38;;;10.80;89.70;;;;;;5115389;28;20031;-72
2021/11/13 03:43:12;;;;;;;13.38;9.70;;;10.80;89.70;;;;;;5098084;28;20022;-72
2021/11/13 03:45:39;;;;;;;13.05;9.63;;;10.80;89.70;;;;;;5097177;28;20035;-72
2021/11/13 03:48:04;;;;;;;13.43;10.10;;;10.80;89.80;;;;;;5097846;28;20019;-72
2021/11/13 03:50:30;;;;;;;14.68;9.60;;;10.90;89.90;;;;;;5097763;28;20114;-72
2021/11/13 03:52:56;;;;;;;12.75;9.38;;;10.80;89.80;;;;;;5097757;28;20023;-72
2021/11/13 03:55:23;;;;;;;12.32;9.50;;;10.90;89.90;;;;;;5115912;28;20076;-72
2021/11/13 03:57:49;;;;;;;11.38;9.35;;;10.90;89.90;;;;;;5115977;28;20028;-72
2021/11/13 04:00:16;;;;;;;11.02;9.60;;;10.90;89.80;;;;;;5097590;28;20026;-72
2021/11/13 04:02:46;;;;;;;11.65;10.02;;;10.90;89.90;;;;;;5097501;28;20157;-71
2021/11/13 04:05:12;;;;;;;12.95;9.57;;;10.90;89.90;;;;;;5115920;28;20043;-71
2021/11/13 04:07:38;;;;;;;13.88;10.15;;;10.90;89.90;;;;;;5097326;28;20073;-72
2021/11/13 04:10:06;;;;;;;11.10;9.50;;;10.90;89.90;;;;;;5097496;28;20054;-71
2021/11/13 04:12:32;;;;;;;14.45;10.50;;;10.90;89.90;;;;;;5097323;28;20024;-71
2021/11/13 04:14:58;;;;;;;14.95;10.23;;;11.00;90.00;;;;;;5115589;28;20494;-73
2021/11/13 04:17:24;;;;;;;14.52;9.93;;;11.00;89.90;;;;;;5115634;28;20024;-72
2021/11/13 04:19:49;;;;;;;14.15;9.38;;;11.00;89.90;;;;;;5115510;28;20031;-74
2021/11/13 04:22:15;;;;;;;12.95;9.75;;;11.00;89.90;;;;;;5115362;28;20027;-73
2021/11/13 04:24:40;;;;;;;12.80;10.43;;;11.00;89.90;;;;;;5097307;28;20081;-72
2021/11/13 04:27:06;;;;;;;12.10;9.70;;;11.00;89.90;;;;;;5097007;28;20020;-73
2021/11/13 04:29:32;;;;;;;12.35;9.75;;;11.10;90.00;;;;;;5097213;28;20035;-71
2021/11/13 04:31:58;;;;;;;11.52;9.13;;;11.10;90.00;;;;;;5096971;28;20375;-71
2021/11/13 04:34:25;;;;;;;11.00;8.93;;;11.10;89.90;;;;;;5115052;28;20043;-72
2021/11/13 04:36:54;;;;;;;12.77;9.73;;;11.10;89.90;;;;;;5096891;28;20027;-71
2021/11/13 04:39:25;;;;;;;14.43;9.40;;;11.10;89.90;;;;;;5096855;28;20472;-71
2021/11/13 04:41:52;;;;;;;11.27;8.93;;;11.20;90.00;;;;;;5114934;28;20019;-71
2021/11/13 04:44:19;;;;;;;10.50;8.93;;;11.10;89.90;;;;;;5114893;28;20027;-71
2021/11/13 04:46:44;;;;;;;12.85;9.38;;;11.10;89.90;;;;;;5096421;28;20047;-71
2021/11/13 04:49:10;;;;;;;10.27;9.18;;;11.10;89.90;;;;;;5096666;28;20051;-72
2021/11/13 04:51:35;;;;;;;11.38;9.20;;;11.20;90.00;;;;;;5096756;28;20022;-72
2021/11/13 04:54:01;;;;;;;10.90;9.07;;;11.10;89.90;;;;;;5114727;28;20098;-73
2021/11/13 04:56:27;;;;;;;12.32;9.63;;;11.20;90.00;;;;;;5113840;28;20145;-72
2021/11/13 04:58:52;;;;;;;11.50;9.05;;;11.20;90.00;;;;;;5114796;28;20172;-72
2021/11/13 05:01:18;;;;;;;10.80;8.95;;;11.20;90.00;;;;;;5096322;28;20386;-72
2021/11/13 05:03:43;;;;;;;11.43;9.43;;;11.20;90.00;;;;;;5114618;28;20107;-72
2021/11/13 05:06:09;;;;;;;11.70;8.68;;;11.20;90.00;;;;;;5095922;28;20023;-72
2021/11/13 05:08:35;;;;;;;12.10;9.23;;;11.20;89.90;;;;;;5096108;28;20019;-72
2021/11/13 05:11:03;;;;;;;10.50;9.00;;;11.20;89.90;;;;;;5114526;28;20476;-73
2021/11/13 05:13:29;;;;;;;11.65;9.45;;;11.20;90.00;;;;;;5096122;28;20024;-72
2021/11/13 05:15:54;;;;;;;12.05;9.80;;;11.20;90.00;;;;;;5114479;28;20088;-73
2021/11/13 05:18:21;;;;;;;11.35;8.77;;;11.20;90.00;;;;;;5096143;28;20027;-72
2021/11/13 05:20:46;;;;;;;13.48;9.02;;;11.20;90.00;;;;;;5114261;28;20084;-73
2021/11/13 05:23:12;;;;;;;9.65;8.27;;;11.20;90.00;;;;;;5096095;28;20024;-73
2021/11/13 05:25:38;;;;;;;10.98;8.80;;;11.20;90.10;;;;;;5114228;28;20098;-73
2021/11/13 05:28:03;;;;;;;10.85;8.70;;;11.10;90.10;;;;;;5095993;28;20027;-72
2021/11/13 05:30:29;;;;;;;8.85;7.68;;;11.10;90.10;;;;;;5095765;28;20053;-72
2021/11/13 05:32:56;;;;;;;9.75;8.40;;;11.10;90.10;;;;;;5095745;28;20024;-72
2021/11/13 05:35:23;;;;;;;8.80;7.63;;;11.10;90.10;;;;;;5095657;28;20044;-72
2021/11/13 05:37:50;;;;;;;10.40;7.88;;;11.10;90.20;;;;;;5095771;28;20047;-73
2021/11/13 05:40:16;;;;;;;8.30;7.25;;;11.20;90.20;;;;;;5113768;28;20024;-72
2021/11/13 05:42:42;;;;;;;9.48;7.38;;;11.10;90.20;;;;;;5113966;28;20024;-73
2021/11/13 05:45:10;;;;;;;9.00;8.10;;;11.20;90.20;;;;;;5113810;28;20479;-73
2021/11/13 05:47:36;;;;;;;8.57;7.63;;;11.20;90.20;;;;;;5095467;28;20110;-72
2021/11/13 05:50:03;;;;;;;9.38;7.28;;;11.10;90.20;;;;;;5095507;28;20451;-72
2021/11/13 05:52:28;;;;;;;8.70;7.57;;;11.10;90.20;;;;;;5113765;28;20552;-72
2021/11/13 05:54:54;;;;;;;8.82;7.63;;;11.20;90.30;;;;;;5095398;28;20027;-72
2021/11/13 05:57:20;;;;;;;8.80;7.90;;;11.20;90.30;;;;;;5113592;28;20073;-73
2021/11/13 05:59:45;;;;;;;8.85;7.70;;;11.20;90.30;;;;;;5095351;28;20023;-72
2021/11/13 06:05:33;;;;;;;8.77;7.07;;;11.20;90.30;;;;;;5113862;28;20045;-73
2021/11/13 06:07:58;;;;;;;8.25;6.78;;;11.20;90.30;;;;;;5113491;28;20020;-73
2021/11/13 06:10:24;;;;;;;8.25;6.57;;;11.20;90.30;;;;;;5095254;28;20020;-73
2021/11/13 06:12:50;;;;;;;8.10;6.28;;;11.20;90.40;;;;;;5113489;28;20383;-73
2021/11/13 06:15:15;;;;;;;8.70;6.15;;;11.20;90.40;;;;;;5095387;28;20023;-73
2021/11/13 06:17:41;;;;;;;6.47;5.78;;;11.20;90.40;;;;;;5095191;28;20024;-74
2021/11/13 06:20:08;;;;;;;6.15;5.55;;;11.20;90.40;;;;;;5095115;28;20054;-74
2021/11/13 06:22:34;;;;;;;6.57;5.35;;;11.20;90.40;;;;;;5095103;28;20015;-73
2021/11/13 06:25:00;;;;;;;6.53;5.93;;;11.20;90.40;;;;;;5095109;28;20020;-73
2021/11/13 06:27:25;;;;;;;7.53;6.18;;;11.30;90.40;;;;;;5095026;28;20061;-73
2021/11/13 06:29:51;;;;;;;6.75;6.00;;;11.20;90.40;;;;;;5094965;28;20020;-73
2021/11/13 06:32:17;;;;;;;7.82;6.55;;;11.30;90.40;;;;;;5095150;28;20041;-74
2021/11/13 06:34:43;;;;;;;6.82;6.10;;;11.30;90.40;;;;;;5094752;28;20411;-74
2021/11/13 06:37:09;;;;;;;9.60;6.57;;;11.30;90.40;;;;;;5095018;28;20015;-74
2021/11/13 06:39:35;;;;;;;8.57;6.20;;;11.30;90.40;;;;;;5113020;28;20520;-74
2021/11/13 06:42:05;;;;;;;11.10;8.90;;;11.30;90.40;;;;;;5095075;28;20020;-74
2021/11/13 06:44:30;;;;;;;7.88;7.07;;;11.30;90.40;;;;;;5094962;28;20028;-74
2021/11/13 06:46:57;;;;;;;7.82;7.03;;;11.30;90.40;;;;;;5094717;28;20057;-73
2021/11/13 06:49:22;;;;;;;8.25;7.32;;;11.30;90.40;;;;;;5113280;28;20047;-74
2021/11/13 06:51:48;;;;;;;8.52;7.28;;;11.40;90.50;;;;;;5094851;28;20028;-74
2021/11/13 06:54:14;;;;;;;7.40;6.68;;;11.40;90.50;;;;;;5113153;28;20664;-74
2021/11/13 06:56:41;;;;;;;8.07;7.28;;;11.40;90.50;;;;;;5094814;28;20020;-74
2021/11/13 06:59:07;;;;;;;7.15;6.45;;;11.40;90.50;;;;;;5094710;28;20068;-74
2021/11/13 07:01:32;;;;;;;7.47;6.68;;;11.40;90.40;;;;;;5094835;28;20024;-74
2021/11/13 07:03:58;;;;;;;7.55;6.80;;;11.40;90.50;;;;;;5113035;28;20479;-72
2021/11/13 07:06:23;;;;;;;6.90;6.00;;;11.40;90.40;;;;;;5094628;28;20023;-72
2021/11/13 07:08:49;;;;;;;7.80;6.70;;;11.40;90.40;;;;;;5094658;28;20028;-73
2021/11/13 07:11:15;;;;;;;7.03;6.32;;;11.40;90.40;;;;;;5094627;28;20161;-73
2021/11/13 07:13:40;;;;;;;7.20;6.50;;;11.30;90.40;;;;;;5094721;28;20107;-73
2021/11/13 07:16:09;;;;;;;8.40;6.95;;;11.40;90.50;;;;;;5094703;28;20480;-73
2021/11/13 07:18:35;;;;;;;7.28;6.57;;;11.30;90.40;;;;;;5113148;28;20482;-73
2021/11/13 07:21:04;;;;;;;7.53;6.28;;;11.40;90.50;;;;;;5098258;28;20040;-74
2021/11/13 07:23:31;;;;;;;7.28;6.57;;;11.40;90.50;;;;;;5116679;28;20028;-74
2021/11/13 07:25:59;;;;;;;7.63;6.88;;;11.40;90.50;;;;;;5116425;28;20378;-73
2021/11/13 07:28:38;;;;;;;7.10;6.40;;;11.40;90.50;;;;;;5098310;28;20020;-74
2021/11/13 07:31:06;;;;;;;8.95;6.57;;;11.40;90.50;;;;;;5098050;28;20015;-73
2021/11/13 07:33:32;;;;;;;7.70;6.15;;;11.40;90.50;;;;;;5098093;28;20032;-74
2021/11/13 07:35:57;;;;;;;6.78;6.18;;;11.40;90.40;;;;;;5095256;28;20122;-73
2021/11/13 07:38:23;;;;;;;8.02;7.18;;;11.40;90.40;;;;;;5098113;28;20092;-74
2021/11/13 07:40:49;;;;;;;7.50;6.80;;;11.40;90.40;;;;;;5097933;28;20050;-74
2021/11/13 07:43:14;;;;;;;8.02;6.65;;;11.50;90.40;;;;;;5094991;28;20039;-74
2021/11/13 07:45:40;;;;;;;8.70;7.57;;;11.50;90.40;;;;;;5097774;28;20502;-73
2021/11/13 07:48:07;;;;;;;8.38;7.47;;;11.50;90.40;;;;;;5097727;28;20023;-73
2021/11/13 07:50:35;;;;;;;7.93;7.00;;;11.50;90.40;;;;;;5116131;28;20012;-74
2021/11/13 07:53:05;;;;;;;9.30;7.72;;;11.60;90.40;;;;;;5097782;28;20432;-73
2021/11/13 07:55:33;;;;;;;8.75;7.00;;;11.60;90.40;;;;;;5097760;28;20048;-74
2021/11/13 07:57:59;;;;;;;8.15;7.35;;;11.60;90.40;;;;;;5097593;28;20023;-74
2021/11/13 08:00:28;;;;;;;7.55;6.85;;;11.70;90.40;;;;;;5097684;28;20022;-74
2021/11/13 08:02:55;;;;;;;7.60;6.72;;;11.70;90.40;;;;;;5097506;28;20019;-73
2021/11/13 08:05:21;;;;;;;8.30;7.28;;;11.70;90.30;;;;;;5097943;28;20016;-74
2021/11/13 08:07:46;;;;;;;7.55;6.75;;;11.80;90.40;;;;;;5097821;28;20119;-73
2021/11/13 08:10:14;;;;;;;8.10;7.20;;;11.80;90.40;;;;;;5097732;28;20019;-73
2021/11/13 08:12:40;;;;;;;7.97;7.18;;;11.80;90.40;;;;;;5115644;28;20119;-74
2021/11/13 08:15:07;;;;;;;7.45;6.70;;;11.80;90.40;;;;;;5115695;28;20035;-73
2021/11/13 08:17:33;;;;;;;8.27;7.40;;;11.80;90.40;;;;;;5097086;28;20022;-73
2021/11/13 08:19:58;;;;;;;8.45;7.18;;;11.90;90.40;;;;;;5097262;28;20118;-74
2021/11/13 08:22:24;;;;;;;7.90;7.10;;;11.90;90.30;;;;;;5094128;28;20032;-73
2021/11/13 08:28:13;;;;;;;7.88;7.07;;;12.00;90.30;;;;;;5115424;28;20038;-73
2021/11/13 08:30:39;;;;;;;7.63;6.82;;;12.00;90.30;;;;;;5094009;28;20051;-73
2021/11/13 08:33:07;;;;;;;8.27;7.45;;;11.90;90.30;;;;;;5097142;28;20019;-75
2021/11/13 08:35:37;;;;;;;9.60;7.55;;;12.00;90.30;;;;;;5096853;28;20043;-73
2021/11/13 08:38:02;;;;;;;8.90;8.00;;;12.00;90.30;;;;;;5097033;28;20114;-73
2021/11/13 08:40:28;;;;;;;9.40;7.30;;;12.00;90.30;;;;;;5097379;28;20479;-74
2021/11/13 08:42:56;;;;;;;8.70;7.65;;;12.00;90.30;;;;;;5115081;28;20096;-73
2021/11/13 08:45:21;;;;;;;8.43;7.53;;;12.00;90.30;;;;;;5093735;28;20020;-74
2021/11/13 08:47:47;;;;;;;9.30;8.38;;;12.00;90.30;;;;;;5096724;28;20023;-73
2021/11/13 08:50:23;;;;;;;8.82;7.90;;;12.00;90.30;;;;;;5114867;28;20026;-74
2021/11/13 08:52:51;;;;;;;12.77;8.30;;;12.00;90.30;;;;;;5096893;28;20016;-74
2021/11/13 08:55:19;;;;;;;9.70;8.70;;;12.00;90.30;;;;;;5096468;28;20028;-74
2021/11/13 08:57:45;;;;;;;10.50;9.27;;;12.00;90.30;;;;;;5096385;28;20024;-73
2021/11/13 09:00:14;;;;;;;10.30;8.85;;;12.10;90.40;;;;;;5096534;28;20391;-74
2021/11/13 09:02:39;;;;;;;10.43;9.27;;;12.10;90.40;;;;;;5093696;28;20031;-74
2021/11/13 09:08:27;;;;;;;9.45;8.27;;;12.10;90.40;;;;;;5114972;28;20030;-75
2021/11/13 09:10:54;;;;;;;9.52;8.52;;;12.20;90.30;;;;;;5096437;28;20459;-75
2021/11/13 09:13:24;;;;;;;9.77;8.70;;;12.20;90.30;;;;;;5096054;28;20023;-74
2021/11/13 09:15:50;;;;;;;10.38;8.85;;;12.20;90.30;;;;;;5096115;28;20114;-74
2021/11/13 09:18:16;;;;;;;11.68;8.98;;;12.20;90.30;;;;;;5114430;28;20031;-76
2021/11/13 09:20:42;;;;;;;10.63;8.52;;;12.20;90.30;;;;;;5096072;28;20471;-76
2021/11/13 09:23:12;;;;;;;13.15;9.80;;;12.20;90.30;;;;;;5093283;28;20026;-76
2021/11/13 09:25:43;;;;;;;12.88;9.60;;;12.30;90.40;;;;;;5111459;28;20027;-76
2021/11/13 09:28:52;;;;;;;10.55;9.48;;;12.30;90.30;;;;;;5114250;28;20095;-76
2021/11/13 09:31:19;;;;;;;11.65;9.90;;;12.30;90.30;;;;;;5114105;28;20074;-75
2021/11/13 09:33:45;;;;;;;11.52;9.50;;;12.30;90.30;;;;;;5113873;28;20040;-75
2021/11/13 09:36:11;;;;;;;10.40;9.30;;;12.30;90.30;;;;;;5114498;28;20023;-75
2021/11/13 09:42:24;;;;;;;10.25;9.07;;;12.40;90.30;;;;;;5113586;28;20560;-73
2021/11/13 09:44:50;;;;;;;12.82;9.15;;;12.40;90.30;;;;;;5095726;28;20035;-73
2021/11/13 09:50:44;;;;;;;12.30;9.40;;;12.40;90.30;;;;;;5114003;28;20061;-74
2021/11/13 09:56:32;;;;;;;10.70;8.98;;;12.50;90.30;;;;;;5113958;28;20027;-75
2021/11/13 09:58:59;;;;;;;11.07;8.43;;;12.60;90.30;;;;;;5095544;28;20058;-75
2021/11/13 10:01:25;;;;;;;9.25;8.23;;;12.60;90.50;;;;;;5097276;28;20027;-75
2021/11/13 10:03:51;;;;;;;10.15;8.50;;;12.60;90.20;;;;;;5092525;28;20039;-74
2021/11/13 10:06:17;;;;;;;9.68;8.38;;;12.60;90.20;;;;;;5095362;28;20028;-72
2021/11/13 10:08:46;;;;;;;13.35;9.27;;;12.70;90.20;;;;;;5110376;28;20047;-73
2021/11/13 10:11:16;;;;;;;10.60;8.88;;;12.70;90.20;;;;;;5095281;28;20024;-75
2021/11/13 10:13:44;;;;;;;9.30;7.93;;;12.70;90.20;;;;;;5095231;28;20051;-73
2021/11/13 10:16:16;;;;;;;10.65;8.52;;;12.70;90.20;;;;;;5095337;28;20037;-74
2021/11/13 10:18:52;;;;;;;11.77;9.15;;;12.70;90.20;;;;;;5113480;28;20020;-77
2021/11/13 10:21:20;;;;;;;12.18;8.88;;;12.60;90.20;;;;;;5095092;28;20043;-77
2021/11/13 10:23:59;;;;;;;11.55;9.50;;;12.60;90.20;;;;;;5095022;28;20556;-76
2021/11/13 10:26:33;;;;;;;12.20;9.32;;;12.60;90.30;;;;;;5095076;28;20089;-75
2021/11/13 10:32:18;;;;;;;10.85;8.57;;;12.60;90.30;;;;;;5043092;28;20176;-76
2021/11/13 10:34:47;;;;;;;9.82;8.82;;;12.70;90.30;;;;;;5033829;28;20491;-75
2021/11/13 10:37:25;;;;;;;10.68;9.27;;;12.70;90.30;;;;;;5033980;28;20544;-77
2021/11/13 10:39:56;;;;;;;12.52;8.98;;;12.80;90.20;;;;;;5048209;28;20041;-77
2021/11/13 10:42:22;;;;;;;10.73;8.85;;;12.80;90.20;;;;;;5031195;28;20049;-77
2021/11/13 10:44:58;;;;;;;9.63;8.63;;;12.80;90.20;;;;;;5033998;28;20519;-75
2021/11/13 10:47:33;;;;;;;10.60;8.50;;;12.80;90.30;;;;;;5033841;28;20497;-76
2021/11/13 10:50:31;;;;;;;10.95;8.93;;;12.80;90.50;;;;;;5050582;28;20029;-76
2021/11/13 10:52:57;;;;;;;10.75;8.65;;;12.80;90.20;;;;;;4994346;28;20041;-76
2021/11/13 10:55:25;;;;;;;9.65;8.00;;;12.90;90.20;;;;;;5036277;28;20166;-75
2021/11/13 10:58:43;;;;;;;11.70;8.80;;;12.90;90.20;;;;;;5037713;28;20036;-73
2021/11/13 11:01:22;;;;;;;10.20;8.52;;;12.90;90.20;;;;;;5054092;28;20033;-75
2021/11/13 11:07:20;;;;;;;11.80;8.25;;;13.00;90.20;;;;;;5117094;28;20551;-73
2021/11/13 11:09:57;;;;;;;11.02;8.23;;;13.00;90.20;;;;;;5098771;28;20058;-76
2021/11/13 11:12:28;;;;;;;10.85;8.77;;;13.00;90.20;;;;;;5098638;28;20081;-77
2021/11/13 11:14:54;;;;;;;11.35;8.57;;;13.10;90.20;;;;;;5098446;28;20027;-76
2021/11/13 11:17:24;;;;;;;12.25;8.77;;;13.20;90.20;;;;;;5098421;28;20529;-75
2021/11/13 11:19:51;;;;;;;11.27;8.55;;;13.30;90.10;;;;;;5098645;28;20031;-75
2021/11/13 11:25:40;;;;;;;12.60;9.40;;;13.40;90.00;;;;;;5116681;28;20390;-75
2021/11/13 11:28:06;;;;;;;11.90;8.13;;;13.50;89.90;;;;;;5116466;28;20024;-75
2021/11/13 11:30:31;;;;;;;9.15;8.02;;;13.50;89.90;;;;;;5098250;28;20092;-75
2021/11/13 11:32:59;;;;;;;11.25;8.00;;;13.50;90.00;;;;;;5098229;28;20016;-75
2021/11/13 11:35:27;;;;;;;8.70;7.55;;;13.50;89.90;;;;;;5097396;28;20047;-76
2021/11/13 11:38:06;;;;;;;9.52;7.60;;;13.40;89.80;;;;;;5097920;28;20477;-75
2021/11/13 11:40:36;;;;;;;7.78;6.75;;;13.40;89.80;;;;;;5097930;28;20019;-75
2021/11/13 11:43:03;;;;;;;8.57;7.65;;;13.40;89.90;;;;;;5097705;28;20483;-75
2021/11/13 11:45:31;;;;;;;8.32;7.53;;;13.30;89.80;;;;;;5097934;28;20031;-75
2021/11/13 11:47:58;;;;;;;7.57;6.80;;;13.20;89.80;;;;;;5098017;28;20048;-75
2021/11/13 11:50:28;;;;;;;6.55;5.63;;;13.20;89.80;;;;;;5098256;28;20494;-75
2021/11/13 11:53:06;;;;;;;6.82;6.13;;;13.20;89.60;;;;;;5115990;28;20023;-76
2021/11/13 11:55:33;;;;;;;6.65;5.50;;;13.10;89.70;;;;;;5097808;28;20024;-74
2021/11/13 12:01:37;;;;;;;6.32;5.72;;;13.10;89.60;;;;;;5116082;28;20057;-76
2021/11/13 12:04:24;;;;;;;7.70;7.00;;;13.20;89.80;;;;;;5097312;28;20089;-75
2021/11/13 12:06:53;;;;;;;7.05;5.95;;;13.20;89.70;;;;;;5096939;28;20104;-73
2021/11/13 12:09:21;;;;;;;6.20;5.60;;;13.40;89.70;;;;;;5097467;28;20086;-74
2021/11/13 12:12:08;;;;;;;6.63;5.90;;;13.50;89.50;;;;;;5097201;28;20027;-75
2021/11/13 12:14:39;;;;;;;7.85;5.88;;;13.50;89.30;;;;;;5097005;28;20168;-73
2021/11/13 12:17:29;;;;;;;6.07;5.47;;;13.60;89.10;;;;;;5097348;28;20027;-75
2021/11/13 12:20:22;;;;;;;6.65;5.65;;;13.70;89.00;;;;;;5097126;28;20527;-74
2021/11/13 12:22:54;;;;;;;5.95;5.32;;;13.70;88.90;;;;;;5115288;28;20046;-73
2021/11/13 12:25:31;;;;;;;6.50;5.25;;;13.70;88.80;;;;;;5097032;28;20479;-74
2021/11/13 12:31:28;;;;;;;6.60;6.00;;;13.70;88.70;;;;;;5043199;28;20109;-74
2021/11/13 12:33:57;;;;;;;6.88;5.70;;;13.70;88.70;;;;;;5114972;28;20104;-74
2021/11/13 12:36:58;;;;;;;5.25;4.70;;;13.80;88.70;;;;;;5097002;28;20043;-74
2021/11/13 12:39:25;;;;;;;6.63;6.00;;;13.80;88.70;;;;;;5077665;28;20035;-73
2021/11/13 12:41:57;;;;;;;6.22;5.47;;;13.90;88.50;;;;;;5096795;28;20096;-75
2021/11/13 12:44:32;;;;;;;5.97;5.38;;;13.90;88.40;;;;;;5096731;28;20036;-74
2021/11/13 12:50:21;;;;;;;5.25;4.75;;;13.90;88.20;;;;;;5114925;28;20153;-72
2021/11/13 12:52:51;;;;;;;6.05;4.55;;;13.90;88.30;;;;;;5096890;28;20026;-73
2021/11/13 12:55:22;;;;;;;5.88;4.30;;;13.90;88.20;;;;;;5096447;28;20019;-73
2021/11/13 12:58:07;;;;;;;6.35;4.63;;;13.90;88.20;;;;;;5114823;28;20104;-73
2021/11/13 13:00:41;;;;;;;4.75;4.35;;;13.80;88.10;;;;;;5096432;28;20476;-74
2021/11/13 13:03:14;;;;;;;6.50;4.35;;;13.80;88.80;;;;;;5096375;28;20028;-73
2021/11/13 13:05:41;;;;;;;5.60;4.43;;;13.80;88.20;;;;;;5096123;28;20034;-73
2021/11/13 13:08:06;;;;;;;5.20;4.60;;;13.80;88.20;;;;;;5096083;28;20407;-74
2021/11/13 13:10:33;;;;;;;5.10;4.60;;;13.80;88.30;;;;;;5093357;28;20038;-73
2021/11/13 13:13:03;;;;;;;5.07;4.50;;;13.70;88.10;;;;;;5096185;28;20020;-73
2021/11/13 13:15:29;;;;;;;4.88;4.38;;;13.70;88.10;;;;;;5096278;28;20384;-75
2021/11/13 13:17:55;;;;;;;6.25;4.72;;;13.70;88.10;;;;;;5095288;28;20023;-73
2021/11/13 13:20:32;;;;;;;6.03;4.85;;;13.70;88.00;;;;;;5090367;28;20039;-73
2021/11/13 13:23:05;;;;;;;4.80;4.28;;;13.60;87.90;;;;;;5114230;28;20428;-74
2021/11/13 13:25:34;;;;;;;4.57;4.18;;;13.60;88.00;;;;;;5114594;28;20024;-74
2021/11/13 13:28:02;;;;;;;5.40;3.97;;;13.60;88.10;;;;;;5095848;28;20020;-74